sensor_id;sensor_type;location;lat;lon;timestamp;pressure;altitude;pressure_sealevel;temperature;humidity
75447;BME280;64024;55.820;37.574;2023-09-07T00:01:49;99269.00;;;22.98;39.55
75447;BME280;64024;55.820;37.574;2023-09-07T00:04:19;99285.25;;;22.98;39.55
75447;BME280;64024;55.820;37.574;2023-09-07T00:06:45;99286.06;;;22.99;39.60
75447;BME280;64024;55.820;37.574;2023-09-07T00:09:13;99281.44;;;22.99;39.55
75447;BME280;64024;55.820;37.574;2023-09-07T00:11:56;99280.34;;;23.00;39.80
75447;BME280;64024;55.820;37.574;2023-09-07T00:14:34;99275.72;;;23.01;39.58
75447;BME280;64024;55.820;37.574;2023-09-07T00:16:59;99289.28;;;23.01;39.44
75447;BME280;64024;55.820;37.574;2023-09-07T00:19:25;99288.22;;;22.97;38.84
75447;BME280;64024;55.820;37.574;2023-09-07T00:22:03;99282.97;;;22.81;37.81
75447;BME280;64024;55.820;37.574;2023-09-07T00:24:30;99295.88;;;22.66;37.63
75447;BME280;64024;55.820;37.574;2023-09-07T00:26:57;99295.69;;;22.57;37.34
75447;BME280;64024;55.820;37.574;2023-09-07T00:29:25;99291.63;;;22.54;37.93
75447;BME280;64024;55.820;37.574;2023-09-07T00:31:53;99286.22;;;22.54;38.36
75447;BME280;64024;55.820;37.574;2023-09-07T00:34:18;99294.28;;;22.59;38.19
75447;BME280;64024;55.820;37.574;2023-09-07T00:36:47;99280.97;;;22.63;38.59
75447;BME280;64024;55.820;37.574;2023-09-07T00:39:12;99283.94;;;22.67;38.37
75447;BME280;64024;55.820;37.574;2023-09-07T00:41:38;99289.28;;;22.72;38.53
75447;BME280;64024;55.820;37.574;2023-09-07T00:44:04;99268.94;;;22.74;38.64
75447;BME280;64024;55.820;37.574;2023-09-07T00:46:32;99290.06;;;22.77;38.63
75447;BME280;64024;55.820;37.574;2023-09-07T00:49:07;99298.44;;;22.81;38.82
75447;BME280;64024;55.820;37.574;2023-09-07T00:51:33;99295.41;;;22.82;38.77
75447;BME280;64024;55.820;37.574;2023-09-07T00:53:59;99307.06;;;22.83;38.73
75447;BME280;64024;55.820;37.574;2023-09-07T00:56:28;99314.88;;;22.84;38.81
75447;BME280;64024;55.820;37.574;2023-09-07T00:58:54;99300.28;;;22.86;38.64
75447;BME280;64024;55.820;37.574;2023-09-07T01:01:23;99319.16;;;22.96;38.77
75447;BME280;64024;55.820;37.574;2023-09-07T01:03:54;99321.34;;;22.94;38.70
75447;BME280;64024;55.820;37.574;2023-09-07T01:06:39;99318.91;;;22.92;38.66
75447;BME280;64024;55.820;37.574;2023-09-07T01:09:16;99328.16;;;22.91;38.71
75447;BME280;64024;55.820;37.574;2023-09-07T01:11:47;99317.31;;;22.91;39.07
75447;BME280;64024;55.820;37.574;2023-09-07T01:14:16;99328.16;;;22.91;39.12
75447;BME280;64024;55.820;37.574;2023-09-07T01:20:06;99323.00;;;22.90;38.67
75447;BME280;64024;55.820;37.574;2023-09-07T01:22:54;99326.28;;;22.87;38.63
75447;BME280;64024;55.820;37.574;2023-09-07T01:29:19;99308.59;;;22.89;39.16
75447;BME280;64024;55.820;37.574;2023-09-07T01:31:54;99300.78;;;22.88;38.87
75447;BME280;64024;55.820;37.574;2023-09-07T01:35:00;99324.88;;;22.89;39.44
75447;BME280;64024;55.820;37.574;2023-09-07T01:37:51;99327.56;;;22.89;39.32
75447;BME280;64024;55.820;37.574;2023-09-07T01:40:32;99332.19;;;22.89;39.24
75447;BME280;64024;55.820;37.574;2023-09-07T01:42:57;99341.44;;;22.88;39.41
75447;BME280;64024;55.820;37.574;2023-09-07T01:45:26;99327.88;;;22.88;38.73
75447;BME280;64024;55.820;37.574;2023-09-07T01:47:52;99344.13;;;22.88;39.31
75447;BME280;64024;55.820;37.574;2023-09-07T01:50:26;99326.28;;;22.87;39.22
75447;BME280;64024;55.820;37.574;2023-09-07T01:53:08;99346.03;;;22.87;39.27
75447;BME280;64024;55.820;37.574;2023-09-07T01:55:38;99355.28;;;22.86;39.47
75447;BME280;64024;55.820;37.574;2023-09-07T01:58:15;99341.72;;;22.86;39.40
75447;BME280;64024;55.820;37.574;2023-09-07T02:00:57;99347.16;;;22.86;39.29
75447;BME280;64024;55.820;37.574;2023-09-07T02:03:26;99358.25;;;22.84;39.18
75447;BME280;64024;55.820;37.574;2023-09-07T02:06:02;99360.97;;;22.84;39.05
75447;BME280;64024;55.820;37.574;2023-09-07T02:08:38;99373.69;;;22.84;39.33
75447;BME280;64024;55.820;37.574;2023-09-07T02:11:06;99355.84;;;22.83;39.32
75447;BME280;64024;55.820;37.574;2023-09-07T02:13:38;99367.78;;;22.82;39.20
75447;BME280;64024;55.820;37.574;2023-09-07T02:16:06;99362.63;;;22.80;39.31
75447;BME280;64024;55.820;37.574;2023-09-07T02:18:35;99361.00;;;22.79;39.38
75447;BME280;64024;55.820;37.574;2023-09-07T02:21:12;99364.53;;;22.80;39.56
75447;BME280;64024;55.820;37.574;2023-09-07T02:23:38;99332.31;;;22.78;39.45
75447;BME280;64024;55.820;37.574;2023-09-07T02:26:04;99364.28;;;22.76;39.61
75447;BME280;64024;55.820;37.574;2023-09-07T02:28:30;99366.19;;;22.76;39.33
75447;BME280;64024;55.820;37.574;2023-09-07T02:31:02;99381.66;;;22.75;39.49
75447;BME280;64024;55.820;37.574;2023-09-07T02:33:28;99373.81;;;22.74;39.67
75447;BME280;64024;55.820;37.574;2023-09-07T02:35:56;99368.66;;;22.72;39.42
75447;BME280;64024;55.820;37.574;2023-09-07T02:38:29;99401.16;;;22.72;39.41
75447;BME280;64024;55.820;37.574;2023-09-07T02:40:58;99377.09;;;22.71;39.60
75447;BME280;64024;55.820;37.574;2023-09-07T02:43:26;99403.38;;;22.70;39.44
75447;BME280;64024;55.820;37.574;2023-09-07T02:46:01;99390.13;;;22.69;39.45
75447;BME280;64024;55.820;37.574;2023-09-07T02:48:39;99410.16;;;22.68;39.50
75447;BME280;64024;55.820;37.574;2023-09-07T02:51:07;99386.88;;;22.67;39.64
75447;BME280;64024;55.820;37.574;2023-09-07T02:53:33;99400.13;;;22.68;39.51
75447;BME280;64024;55.820;37.574;2023-09-07T02:56:01;99392.28;;;22.67;39.61
75447;BME280;64024;55.820;37.574;2023-09-07T02:58:30;99409.66;;;22.66;39.52
75447;BME280;64024;55.820;37.574;2023-09-07T03:00:58;99406.94;;;22.66;39.70
75447;BME280;64024;55.820;37.574;2023-09-07T03:03:31;99408.03;;;22.65;39.80
75447;BME280;64024;55.820;37.574;2023-09-07T03:06:08;99410.75;;;22.65;39.92
75447;BME280;64024;55.820;37.574;2023-09-07T03:08:44;99409.66;;;22.66;40.18
75447;BME280;64024;55.820;37.574;2023-09-07T03:11:10;99401.78;;;22.64;40.30
75447;BME280;64024;55.820;37.574;2023-09-07T03:13:35;99407.19;;;22.64;40.34
75447;BME280;64024;55.820;37.574;2023-09-07T03:16:03;99408.84;;;22.65;40.31
75447;BME280;64024;55.820;37.574;2023-09-07T03:18:33;99418.88;;;22.65;40.24
75447;BME280;64024;55.820;37.574;2023-09-07T03:21:00;99418.88;;;22.65;40.62
75447;BME280;64024;55.820;37.574;2023-09-07T03:23:34;99417.47;;;22.67;40.40
75447;BME280;64024;55.820;37.574;2023-09-07T03:26:05;99414.50;;;22.69;40.80
75447;BME280;64024;55.820;37.574;2023-09-07T03:28:33;99426.16;;;22.69;40.55
75447;BME280;64024;55.820;37.574;2023-09-07T03:31:01;99416.91;;;22.70;40.67
75447;BME280;64024;55.820;37.574;2023-09-07T03:33:52;99419.06;;;22.73;40.58
75447;BME280;64024;55.820;37.574;2023-09-07T03:36:29;99411.44;;;22.75;40.93
75447;BME280;64024;55.820;37.574;2023-09-07T03:38:55;99427.44;;;22.77;40.86
75447;BME280;64024;55.820;37.574;2023-09-07T03:44:27;99435.19;;;22.89;40.39
75447;BME280;64024;55.820;37.574;2023-09-07T03:46:55;99432.75;;;22.87;40.57
75447;BME280;64024;55.820;37.574;2023-09-07T03:49:27;99437.66;;;22.85;40.50
75447;BME280;64024;55.820;37.574;2023-09-07T03:51:52;99437.38;;;22.87;40.41
75447;BME280;64024;55.820;37.574;2023-09-07T03:54:21;99440.91;;;22.87;40.58
75447;BME280;64024;55.820;37.574;2023-09-07T03:56:50;99435.97;;;22.89;40.62
75447;BME280;64024;55.820;37.574;2023-09-07T03:59:30;99435.44;;;22.92;40.57
75447;BME280;64024;55.820;37.574;2023-09-07T04:01:58;99442.22;;;22.95;40.57
75447;BME280;64024;55.820;37.574;2023-09-07T04:04:35;99444.81;;;23.05;40.27
75447;BME280;64024;55.820;37.574;2023-09-07T04:07:03;99455.66;;;23.05;40.20
75447;BME280;64024;55.820;37.574;2023-09-07T04:09:29;99452.16;;;23.04;40.39
75447;BME280;64024;55.820;37.574;2023-09-07T04:12:07;99446.47;;;23.06;40.47
75447;BME280;64024;55.820;37.574;2023-09-07T04:14:33;99456.22;;;23.07;40.05
75447;BME280;64024;55.820;37.574;2023-09-07T04:17:10;99461.88;;;23.11;40.37
75447;BME280;64024;55.820;37.574;2023-09-07T04:20:16;99466.69;;;23.14;40.11
75447;BME280;64024;55.820;37.574;2023-09-07T04:22:46;99472.38;;;23.17;40.02
75447;BME280;64024;55.820;37.574;2023-09-07T04:25:20;99477.53;;;23.19;39.86
75447;BME280;64024;55.820;37.574;2023-09-07T04:28:15;99465.28;;;23.21;39.87
75447;BME280;64024;55.820;37.574;2023-09-07T04:31:03;99481.78;;;23.25;40.09
75447;BME280;64024;55.820;37.574;2023-09-07T04:33:41;99482.31;;;23.27;39.85
75447;BME280;64024;55.820;37.574;2023-09-07T04:36:30;99494.22;;;23.31;39.68
75447;BME280;64024;55.820;37.574;2023-09-07T04:39:06;99486.59;;;23.33;40.00
75447;BME280;64024;55.820;37.574;2023-09-07T04:41:46;99489.00;;;23.35;39.92
75447;BME280;64024;55.820;37.574;2023-09-07T04:44:26;99487.63;;;23.37;39.49
75447;BME280;64024;55.820;37.574;2023-09-07T04:47:14;99494.91;;;23.42;39.59
75447;BME280;64024;55.820;37.574;2023-09-07T04:49:47;99501.94;;;23.43;39.54
75447;BME280;64024;55.820;37.574;2023-09-07T04:52:26;99503.28;;;23.45;39.47
75447;BME280;64024;55.820;37.574;2023-09-07T04:55:03;99509.25;;;23.47;39.44
75447;BME280;64024;55.820;37.574;2023-09-07T04:58:11;99509.19;;;23.52;39.35
75447;BME280;64024;55.820;37.574;2023-09-07T05:00:37;99498.06;;;23.54;39.31
75447;BME280;64024;55.820;37.574;2023-09-07T05:03:05;99515.44;;;23.53;39.42
75447;BME280;64024;55.820;37.574;2023-09-07T05:09:30;99487.66;;;23.61;39.35
75447;BME280;64024;55.820;37.574;2023-09-07T05:12:23;99497.41;;;23.62;39.51
75447;BME280;64024;55.820;37.574;2023-09-07T05:14:49;99503.66;;;23.63;39.31
75447;BME280;64024;55.820;37.574;2023-09-07T05:17:24;99496.31;;;23.63;39.45
75447;BME280;64024;55.820;37.574;2023-09-07T05:19:49;99488.75;;;23.65;39.27
75447;BME280;64024;55.820;37.574;2023-09-07T05:22:15;99492.78;;;23.68;39.57
75447;BME280;64024;55.820;37.574;2023-09-07T05:25:01;99497.94;;;23.69;39.78
75447;BME280;64024;55.820;37.574;2023-09-07T05:27:32;99494.91;;;23.71;39.01
75447;BME280;64024;55.820;37.574;2023-09-07T05:30:28;99506.81;;;23.75;39.46
75447;BME280;64024;55.820;37.574;2023-09-07T05:32:53;99492.44;;;23.74;39.24
75447;BME280;64024;55.820;37.574;2023-09-07T05:38:36;99498.03;;;23.83;39.54
75447;BME280;64024;55.820;37.574;2023-09-07T05:41:20;99501.84;;;23.82;39.28
75447;BME280;64024;55.820;37.574;2023-09-07T05:43:57;99501.28;;;23.85;39.41
75447;BME280;64024;55.820;37.574;2023-09-07T05:49:26;99500.69;;;23.88;39.27
75447;BME280;64024;55.820;37.574;2023-09-07T05:52:24;99506.66;;;23.90;39.20
75447;BME280;64024;55.820;37.574;2023-09-07T05:54:52;99506.34;;;23.92;39.19
75447;BME280;64024;55.820;37.574;2023-09-07T06:00:04;99508.50;;;23.95;39.34
75447;BME280;64024;55.820;37.574;2023-09-07T06:03:00;99517.66;;;23.99;38.81
75447;BME280;64024;55.820;37.574;2023-09-07T06:05:57;99510.03;;;24.01;39.07
75447;BME280;64024;55.820;37.574;2023-09-07T06:08:38;99523.59;;;24.01;39.08
75447;BME280;64024;55.820;37.574;2023-09-07T06:11:09;99520.63;;;24.02;38.79
75447;BME280;64024;55.820;37.574;2023-09-07T06:16:48;99529.00;;;24.06;38.89
75447;BME280;64024;55.820;37.574;2023-09-07T06:19:21;99527.09;;;24.06;38.94
75447;BME280;64024;55.820;37.574;2023-09-07T06:22:27;99538.44;;;24.09;38.93
75447;BME280;64024;55.820;37.574;2023-09-07T06:24:52;99542.66;;;24.20;38.87
75447;BME280;64024;55.820;37.574;2023-09-07T06:27:34;99545.16;;;24.16;39.03
75447;BME280;64024;55.820;37.574;2023-09-07T06:30:03;99536.50;;;24.14;38.91
75447;BME280;64024;55.820;37.574;2023-09-07T06:32:41;99539.50;;;24.13;38.88
75447;BME280;64024;55.820;37.574;2023-09-07T06:35:20;99538.41;;;24.14;38.92
75447;BME280;64024;55.820;37.574;2023-09-07T06:38:02;99547.06;;;24.16;39.03
75447;BME280;64024;55.820;37.574;2023-09-07T06:40:58;99542.13;;;24.18;38.73
75447;BME280;64024;55.820;37.574;2023-09-07T06:43:29;99539.41;;;24.18;38.91
75447;BME280;64024;55.820;37.574;2023-09-07T06:46:04;99546.50;;;24.19;38.82
75447;BME280;64024;55.820;37.574;2023-09-07T06:48:33;99549.22;;;24.19;39.06
75447;BME280;64024;55.820;37.574;2023-09-07T06:51:05;99554.34;;;24.20;39.06
75447;BME280;64024;55.820;37.574;2023-09-07T06:53:34;99561.38;;;24.21;38.93
75447;BME280;64024;55.820;37.574;2023-09-07T06:56:03;99554.88;;;24.22;39.12
75447;BME280;64024;55.820;37.574;2023-09-07T06:58:58;99565.13;;;24.25;39.17
75447;BME280;64024;55.820;37.574;2023-09-07T07:01:55;99557.53;;;24.27;38.89
75447;BME280;64024;55.820;37.574;2023-09-07T07:04:29;99558.31;;;24.28;38.86
75447;BME280;64024;55.820;37.574;2023-09-07T07:06:55;99553.69;;;24.28;38.86
75447;BME280;64024;55.820;37.574;2023-09-07T07:09:26;99556.41;;;24.28;38.98
75447;BME280;64024;55.820;37.574;2023-09-07T07:12:25;99561.28;;;24.31;38.51
75447;BME280;64024;55.820;37.574;2023-09-07T07:15:08;99553.13;;;24.31;38.80
75447;BME280;64024;55.820;37.574;2023-09-07T07:17:49;99551.22;;;24.32;38.91
75447;BME280;64024;55.820;37.574;2023-09-07T07:23:34;99566.13;;;24.35;38.56
75447;BME280;64024;55.820;37.574;2023-09-07T07:26:00;99562.56;;;24.34;38.42
75447;BME280;64024;55.820;37.574;2023-09-07T07:28:32;99566.13;;;24.35;38.42
75447;BME280;64024;55.820;37.574;2023-09-07T07:31:18;99567.75;;;24.36;38.40
75447;BME280;64024;55.820;37.574;2023-09-07T07:33:52;99560.41;;;24.36;38.42
75447;BME280;64024;55.820;37.574;2023-09-07T07:36:18;99569.34;;;24.37;38.66
75447;BME280;64024;55.820;37.574;2023-09-07T07:38:52;99567.44;;;24.37;38.48
75447;BME280;64024;55.820;37.574;2023-09-07T07:41:49;99572.03;;;24.42;38.35
75447;BME280;64024;55.820;37.574;2023-09-07T07:44:17;99572.31;;;24.40;38.39
75447;BME280;64024;55.820;37.574;2023-09-07T07:46:46;99569.59;;;24.40;38.40
75447;BME280;64024;55.820;37.574;2023-09-07T07:49:17;99564.97;;;24.41;38.49
75447;BME280;64024;55.820;37.574;2023-09-07T07:51:48;99556.53;;;24.42;38.55
75447;BME280;64024;55.820;37.574;2023-09-07T07:54:24;99572.84;;;24.42;38.64
75447;BME280;64024;55.820;37.574;2023-09-07T07:57:03;99563.31;;;24.45;38.35
75447;BME280;64024;55.820;37.574;2023-09-07T07:59:42;99556.75;;;24.46;38.14
75447;BME280;64024;55.820;37.574;2023-09-07T08:02:08;99558.66;;;24.45;38.25
75447;BME280;64024;55.820;37.574;2023-09-07T08:04:35;99555.69;;;24.47;38.25
75447;BME280;64024;55.820;37.574;2023-09-07T08:07:01;99562.19;;;24.46;37.71
75447;BME280;64024;55.820;37.574;2023-09-07T08:09:42;99560.94;;;24.38;36.08
75447;BME280;64024;55.820;37.574;2023-09-07T08:12:34;99555.06;;;24.26;35.25
75447;BME280;64024;55.820;37.574;2023-09-07T08:15:10;99554.75;;;24.09;34.83
75447;BME280;64024;55.820;37.574;2023-09-07T08:17:35;99559.84;;;23.91;34.69
75447;BME280;64024;55.820;37.574;2023-09-07T08:20:44;99560.56;;;23.73;34.06
75447;BME280;64024;55.820;37.574;2023-09-07T08:23:21;99558.28;;;23.56;34.59
75447;BME280;64024;55.820;37.574;2023-09-07T08:25:59;99560.81;;;23.42;34.03
75447;BME280;64024;55.820;37.574;2023-09-07T08:28:25;99524.00;;;23.36;34.73
75447;BME280;64024;55.820;37.574;2023-09-07T08:30:54;99548.97;;;23.33;34.94
75447;BME280;64024;55.820;37.574;2023-09-07T08:33:29;99534.31;;;23.34;35.09
75447;BME280;64024;55.820;37.574;2023-09-07T08:36:08;99578.50;;;23.35;35.26
75447;BME280;64024;55.820;37.574;2023-09-07T08:41:45;99531.84;;;23.38;35.22
75447;BME280;64024;55.820;37.574;2023-09-07T08:47:37;99533.69;;;23.42;34.97
75447;BME280;64024;55.820;37.574;2023-09-07T08:50:26;99547.25;;;23.42;34.84
75447;BME280;64024;55.820;37.574;2023-09-07T08:52:59;99555.13;;;23.44;34.82
75447;BME280;64024;55.820;37.574;2023-09-07T08:55:30;99597.44;;;23.45;35.09
75447;BME280;64024;55.820;37.574;2023-09-07T08:57:59;99599.03;;;23.46;34.41
75447;BME280;64024;55.820;37.574;2023-09-07T09:00:28;99562.47;;;23.43;34.01
75447;BME280;64024;55.820;37.574;2023-09-07T09:02:59;99539.13;;;23.42;33.91
75447;BME280;64024;55.820;37.574;2023-09-07T09:05:28;99522.28;;;23.45;34.25
75447;BME280;64024;55.820;37.574;2023-09-07T09:08:02;99518.47;;;23.46;33.96
75447;BME280;64024;55.820;37.574;2023-09-07T09:10:39;99527.13;;;23.48;33.76
75447;BME280;64024;55.820;37.574;2023-09-07T09:13:07;99534.97;;;23.50;34.10
75447;BME280;64024;55.820;37.574;2023-09-07T09:15:39;99542.84;;;23.51;33.99
75447;BME280;64024;55.820;37.574;2023-09-07T09:18:12;99540.66;;;23.53;33.97
75447;BME280;64024;55.820;37.574;2023-09-07T09:20:39;99526.78;;;23.55;34.16
75447;BME280;64024;55.820;37.574;2023-09-07T09:23:07;99571.53;;;23.57;34.28
75447;BME280;64024;55.820;37.574;2023-09-07T09:25:33;99548.47;;;23.60;34.07
75447;BME280;64024;55.820;37.574;2023-09-07T09:28:05;99538.13;;;23.62;33.77
75447;BME280;64024;55.820;37.574;2023-09-07T09:31:06;99533.78;;;23.66;33.44
75447;BME280;64024;55.820;37.574;2023-09-07T09:33:40;99528.34;;;23.66;33.50
75447;BME280;64024;55.820;37.574;2023-09-07T09:36:07;99531.06;;;23.66;33.24
75447;BME280;64024;55.820;37.574;2023-09-07T09:38:50;99545.97;;;23.69;33.01
75447;BME280;64024;55.820;37.574;2023-09-07T09:41:29;99535.91;;;23.69;33.15
75447;BME280;64024;55.820;37.574;2023-09-07T09:46:45;99561.66;;;23.72;33.00
75447;BME280;64024;55.820;37.574;2023-09-07T09:49:13;99531.00;;;23.71;32.85
75447;BME280;64024;55.820;37.574;2023-09-07T09:51:49;99586.91;;;23.72;33.20
75447;BME280;64024;55.820;37.574;2023-09-07T09:54:38;99561.63;;;23.77;33.34
75447;BME280;64024;55.820;37.574;2023-09-07T09:57:04;99548.06;;;23.77;33.26
75447;BME280;64024;55.820;37.574;2023-09-07T09:59:32;99521.72;;;23.77;33.03
75447;BME280;64024;55.820;37.574;2023-09-07T10:01:59;99528.25;;;23.76;33.03
75447;BME280;64024;55.820;37.574;2023-09-07T10:04:32;99567.84;;;23.77;32.90
75447;BME280;64024;55.820;37.574;2023-09-07T10:07:39;99556.44;;;23.80;32.24
75447;BME280;64024;55.820;37.574;2023-09-07T10:10:12;99535.56;;;23.76;32.17
75447;BME280;64024;55.820;37.574;2023-09-07T10:12:56;99522.81;;;23.76;32.54
75447;BME280;64024;55.820;37.574;2023-09-07T10:15:37;99514.94;;;23.75;32.66
75447;BME280;64024;55.820;37.574;2023-09-07T10:21:00;99544.00;;;23.74;32.30
75447;BME280;64024;55.820;37.574;2023-09-07T10:23:49;99544.28;;;23.73;31.92
75447;BME280;64024;55.820;37.574;2023-09-07T10:26:31;99545.16;;;23.68;32.00
75447;BME280;64024;55.820;37.574;2023-09-07T10:29:00;99532.75;;;23.57;31.21
75447;BME280;64024;55.820;37.574;2023-09-07T10:31:29;99524.19;;;23.45;30.90
75447;BME280;64024;55.820;37.574;2023-09-07T10:33:55;99533.00;;;23.31;30.95
75447;BME280;64024;55.820;37.574;2023-09-07T10:36:25;99534.16;;;23.20;30.81
75447;BME280;64024;55.820;37.574;2023-09-07T10:38:56;99537.25;;;23.08;30.54
75447;BME280;64024;55.820;37.574;2023-09-07T10:41:43;99529.19;;;22.98;30.30
75447;BME280;64024;55.820;37.574;2023-09-07T10:44:11;99538.16;;;22.89;30.08
75447;BME280;64024;55.820;37.574;2023-09-07T10:46:48;99545.56;;;22.78;30.16
75447;BME280;64024;55.820;37.574;2023-09-07T10:50:03;99525.00;;;22.72;30.24
75447;BME280;64024;55.820;37.574;2023-09-07T10:52:33;99533.16;;;22.67;30.76
75447;BME280;64024;55.820;37.574;2023-09-07T10:55:22;99557.56;;;22.67;31.16
75447;BME280;64024;55.820;37.574;2023-09-07T10:57:51;99544.81;;;22.67;31.48
75447;BME280;64024;55.820;37.574;2023-09-07T11:00:18;99509.34;;;22.69;31.82
75447;BME280;64024;55.820;37.574;2023-09-07T11:03:08;99537.19;;;22.74;31.90
75447;BME280;64024;55.820;37.574;2023-09-07T11:05:42;99530.66;;;22.75;32.00
75447;BME280;64024;55.820;37.574;2023-09-07T11:08:11;99494.88;;;22.78;31.88
75447;BME280;64024;55.820;37.574;2023-09-07T11:10:39;99513.56;;;22.80;31.85
75447;BME280;64024;55.820;37.574;2023-09-07T11:13:18;99549.34;;;22.82;31.75
75447;BME280;64024;55.820;37.574;2023-09-07T11:15:47;99522.75;;;22.84;31.72
75447;BME280;64024;55.820;37.574;2023-09-07T11:18:13;99557.72;;;22.86;32.10
75447;BME280;64024;55.820;37.574;2023-09-07T11:20:38;99540.88;;;22.89;32.57
75447;BME280;64024;55.820;37.574;2023-09-07T11:23:05;99526.00;;;22.91;32.68
75447;BME280;64024;55.820;37.574;2023-09-07T11:25:35;99540.91;;;22.94;32.54
75447;BME280;64024;55.820;37.574;2023-09-07T11:28:02;99518.63;;;22.97;32.92
75447;BME280;64024;55.820;37.574;2023-09-07T11:30:28;99495.56;;;22.99;32.40
75447;BME280;64024;55.820;37.574;2023-09-07T11:33:09;99527.53;;;23.02;32.12
75447;BME280;64024;55.820;37.574;2023-09-07T11:35:40;99528.06;;;23.04;32.57
75447;BME280;64024;55.820;37.574;2023-09-07T11:38:20;99526.69;;;23.07;32.47
75447;BME280;64024;55.820;37.574;2023-09-07T11:41:11;99526.13;;;23.10;32.02
75447;BME280;64024;55.820;37.574;2023-09-07T11:43:40;99513.94;;;23.07;31.59
75447;BME280;64024;55.820;37.574;2023-09-07T11:46:16;99532.41;;;23.00;31.00
75447;BME280;64024;55.820;37.574;2023-09-07T11:48:51;99535.72;;;22.92;30.51
75447;BME280;64024;55.820;37.574;2023-09-07T11:51:22;99536.59;;;22.82;30.64
75447;BME280;64024;55.820;37.574;2023-09-07T11:54:08;99547.78;;;22.71;30.51
75447;BME280;64024;55.820;37.574;2023-09-07T11:57:02;99521.31;;;22.57;30.79
75447;BME280;64024;55.820;37.574;2023-09-07T11:59:39;99524.06;;;22.47;30.63
75447;BME280;64024;55.820;37.574;2023-09-07T12:02:09;99535.47;;;22.44;31.27
75447;BME280;64024;55.820;37.574;2023-09-07T12:04:49;99533.28;;;22.46;31.72
75447;BME280;64024;55.820;37.574;2023-09-07T12:07:20;99497.22;;;22.51;32.13
75447;BME280;64024;55.820;37.574;2023-09-07T12:12:38;99518.06;;;22.61;32.88
75447;BME280;64024;55.820;37.574;2023-09-07T12:15:07;99522.06;;;22.63;32.80
75447;BME280;64024;55.820;37.574;2023-09-07T12:17:37;99513.41;;;22.66;32.96
75447;BME280;64024;55.820;37.574;2023-09-07T12:20:16;99562.13;;;22.71;32.89
75447;BME280;64024;55.820;37.574;2023-09-07T12:22:42;99501.16;;;22.74;32.94
75447;BME280;64024;55.820;37.574;2023-09-07T12:25:10;99496.00;;;22.77;33.40
75447;BME280;64024;55.820;37.574;2023-09-07T12:28:02;99515.22;;;22.81;33.47
75447;BME280;64024;55.820;37.574;2023-09-07T12:30:30;99515.16;;;22.86;33.02
75447;BME280;64024;55.820;37.574;2023-09-07T12:33:16;99512.69;;;22.90;32.75
75447;BME280;64024;55.820;37.574;2023-09-07T12:35:53;99515.16;;;22.91;32.75
75447;BME280;64024;55.820;37.574;2023-09-07T12:38:22;99520.28;;;22.93;32.53
75447;BME280;64024;55.820;37.574;2023-09-07T12:40:52;99515.66;;;22.93;32.45
75447;BME280;64024;55.820;37.574;2023-09-07T12:43:21;99518.91;;;22.95;32.54
75447;BME280;64024;55.820;37.574;2023-09-07T12:45:50;99534.63;;;22.98;32.80
75447;BME280;64024;55.820;37.574;2023-09-07T12:48:21;99522.38;;;23.01;32.72
75447;BME280;64024;55.820;37.574;2023-09-07T12:50:49;99497.72;;;23.02;32.87
75447;BME280;64024;55.820;37.574;2023-09-07T12:53:17;99489.28;;;23.04;32.57
75447;BME280;64024;55.820;37.574;2023-09-07T12:55:47;99493.34;;;23.06;32.86
75447;BME280;64024;55.820;37.574;2023-09-07T12:58:15;99512.84;;;23.08;32.55
75447;BME280;64024;55.820;37.574;2023-09-07T13:00:52;99516.00;;;23.21;32.29
75447;BME280;64024;55.820;37.574;2023-09-07T13:03:25;99514.69;;;23.18;32.25
75447;BME280;64024;55.820;37.574;2023-09-07T13:06:03;99506.81;;;23.17;32.04
75447;BME280;64024;55.820;37.574;2023-09-07T13:08:29;99510.31;;;23.17;31.95
75447;BME280;64024;55.820;37.574;2023-09-07T13:11:00;99491.34;;;23.17;32.32
75447;BME280;64024;55.820;37.574;2023-09-07T13:13:43;99517.59;;;23.22;32.10
75447;BME280;64024;55.820;37.574;2023-09-07T13:16:09;99513.00;;;23.22;32.29
75447;BME280;64024;55.820;37.574;2023-09-07T13:18:41;99502.69;;;23.24;32.09
75447;BME280;64024;55.820;37.574;2023-09-07T13:21:10;99486.13;;;23.26;32.05
75447;BME280;64024;55.820;37.574;2023-09-07T13:23:35;99503.72;;;23.28;32.11
75447;BME280;64024;55.820;37.574;2023-09-07T13:26:03;99499.66;;;23.31;32.36
75447;BME280;64024;55.820;37.574;2023-09-07T13:28:29;99468.41;;;23.33;31.81
75447;BME280;64024;55.820;37.574;2023-09-07T13:30:55;99494.16;;;23.36;31.56
75447;BME280;64024;55.820;37.574;2023-09-07T13:33:23;99471.91;;;23.39;31.94
75447;BME280;64024;55.820;37.574;2023-09-07T13:35:50;99471.31;;;23.42;31.79
75447;BME280;64024;55.820;37.574;2023-09-07T13:38:19;99492.97;;;23.47;32.04
75447;BME280;64024;55.820;37.574;2023-09-07T13:40:44;99475.31;;;23.50;32.05
75447;BME280;64024;55.820;37.574;2023-09-07T13:43:10;99465.50;;;23.54;32.33
75447;BME280;64024;55.820;37.574;2023-09-07T13:45:36;99479.59;;;23.56;32.11
75447;BME280;64024;55.820;37.574;2023-09-07T13:48:01;99469.25;;;23.58;31.71
75447;BME280;64024;55.820;37.574;2023-09-07T13:50:28;99482.25;;;23.61;31.89
75447;BME280;64024;55.820;37.574;2023-09-07T13:52:59;99466.19;;;23.65;31.68
75447;BME280;64024;55.820;37.574;2023-09-07T13:55:25;99477.59;;;23.67;31.17
75447;BME280;64024;55.820;37.574;2023-09-07T13:57:53;99469.69;;;23.70;31.70
75447;BME280;64024;55.820;37.574;2023-09-07T14:00:19;99459.88;;;23.74;31.63
75447;BME280;64024;55.820;37.574;2023-09-07T14:02:55;99455.47;;;23.78;31.75
75447;BME280;64024;55.820;37.574;2023-09-07T14:08:29;99468.41;;;23.87;31.83
75447;BME280;64024;55.820;37.574;2023-09-07T14:11:05;99461.59;;;23.89;31.77
75447;BME280;64024;55.820;37.574;2023-09-07T14:13:31;99452.84;;;23.92;31.67